Schenley, Pennsylvania
Current Conditions -  °F | °C
As of 9:35 AM on Friday 28 Nov 2014 (Local Time) from KBTP Reporting Station
Clear Clear  
Wind Chill: 15°   Ceiling: Unl
Heat Index: 25°   Visibility: 10mi
Dew Point: 12°   Wind: 10mph
Humidity: 59%   Direction: 260°W
Pressure: 30.32"   Gusts: 16mph
Location:  40.68°N, 79.66°W
Report Text: KBTP 281435Z AUTO 26009G14KT 10SM CLR M04/M11 A3032 RMK AO1
Loading
Personal Weather Stations






























Interactive Weather Map New forecast layout! Learn more

10-Day Weather Forecast

Advertisements
Track Severe Weather on mobile